createdAt,value
2022-12-07T00:01:24.652Z,10.43
2022-12-07T00:03:54.219Z,10.70
2022-12-07T00:06:21.730Z,11.70
2022-12-07T00:08:49.058Z,10.40
2022-12-07T00:11:18.904Z,11.80
2022-12-07T00:13:46.165Z,10.83
2022-12-07T00:16:15.364Z,11.50
2022-12-07T00:18:44.611Z,11.13
2022-12-07T00:21:13.625Z,11.03
2022-12-07T00:23:41.511Z,11.10
2022-12-07T00:26:10.818Z,11.40
2022-12-07T00:28:37.977Z,10.00
2022-12-07T00:31:06.624Z,11.23
2022-12-07T00:33:34.057Z,11.40
2022-12-07T00:36:03.462Z,10.93
2022-12-07T00:38:32.340Z,10.43
2022-12-07T00:41:01.178Z,11.60
2022-12-07T00:43:28.312Z,11.20
2022-12-07T00:45:55.687Z,11.47
2022-12-07T00:48:23.165Z,9.87
2022-12-07T00:50:50.376Z,10.97
2022-12-07T00:53:19.362Z,11.97
2022-12-07T00:55:46.644Z,10.77
2022-12-07T00:58:13.687Z,11.20
2022-12-07T01:00:42.252Z,10.40
2022-12-07T01:03:11.838Z,10.50
2022-12-07T01:05:38.882Z,10.57
2022-12-07T01:08:06.685Z,10.47
2022-12-07T01:10:34.938Z,11.40
2022-12-07T01:13:01.786Z,10.27
2022-12-07T01:15:28.649Z,10.93
2022-12-07T01:17:55.712Z,10.30
2022-12-07T01:20:22.751Z,9.43
2022-12-07T01:22:49.608Z,10.40
2022-12-07T01:25:16.523Z,10.47
2022-12-07T01:27:44.702Z,9.30
2022-12-07T01:30:13.089Z,10.57
2022-12-07T01:32:39.963Z,9.23
2022-12-07T01:35:07.853Z,9.97
2022-12-07T01:37:36.940Z,9.27
2022-12-07T01:40:04.806Z,10.40
2022-12-07T01:42:31.769Z,10.47
2022-12-07T01:45:38.112Z,9.73
2022-12-07T01:48:09.168Z,9.70
2022-12-07T01:50:36.979Z,9.77
2022-12-07T01:53:07.688Z,8.63
2022-12-07T01:55:38.168Z,10.40
2022-12-07T01:58:05.579Z,9.77
2022-12-07T02:00:32.449Z,9.73
2022-12-07T02:03:05.864Z,9.60
2022-12-07T02:05:36.333Z,9.43
2022-12-07T02:08:04.039Z,9.07
2022-12-07T02:10:32.822Z,9.73
2022-12-07T02:13:02.596Z,9.33
2022-12-07T02:15:40.181Z,9.33
2022-12-07T02:18:13.873Z,8.97
2022-12-07T02:20:47.214Z,8.77
2022-12-07T02:23:55.010Z,9.07
2022-12-07T02:26:49.070Z,9.30
2022-12-07T02:29:23.830Z,9.67
2022-12-07T02:32:00.078Z,8.83
2022-12-07T02:34:32.499Z,9.10
2022-12-07T02:37:06.731Z,9.57
2022-12-07T02:39:40.997Z,9.30
2022-12-07T02:42:14.892Z,9.13
2022-12-07T02:44:44.732Z,9.97
2022-12-07T02:47:16.054Z,8.93
2022-12-07T02:49:43.680Z,8.50
2022-12-07T02:52:10.734Z,8.93
2022-12-07T02:54:37.794Z,9.23
2022-12-07T02:57:16.112Z,8.80
2022-12-07T02:59:58.534Z,8.73
2022-12-07T03:02:34.977Z,8.97
2022-12-07T03:05:13.820Z,9.27
2022-12-07T03:07:50.751Z,8.67
2022-12-07T03:10:23.787Z,8.13
2022-12-07T03:13:01.444Z,8.10
2022-12-07T03:15:35.231Z,9.53
2022-12-07T03:18:04.090Z,8.60
2022-12-07T03:20:33.624Z,9.33
2022-12-07T03:23:01.055Z,9.33
2022-12-07T03:25:28.877Z,8.40
2022-12-07T03:28:00.013Z,9.07
2022-12-07T03:30:33.567Z,9.40
2022-12-07T03:33:04.965Z,8.43
2022-12-07T03:35:36.525Z,8.80
2022-12-07T03:38:12.579Z,8.47
2022-12-07T03:40:47.963Z,8.33
2022-12-07T03:43:14.859Z,8.10
2022-12-07T03:45:44.756Z,8.40
2022-12-07T03:48:21.891Z,8.60
2022-12-07T03:50:54.452Z,7.87
2022-12-07T03:53:25.727Z,8.60
2022-12-07T03:55:55.052Z,8.30
2022-12-07T03:58:23.367Z,7.80
2022-12-07T04:00:52.362Z,8.03
2022-12-07T04:03:19.413Z,8.00
2022-12-07T04:05:46.865Z,6.70
2022-12-07T04:08:13.760Z,6.97
2022-12-07T04:10:40.617Z,7.90
2022-12-07T04:13:07.460Z,7.67
2022-12-07T04:15:34.425Z,7.80
2022-12-07T04:18:02.652Z,7.40
2022-12-07T04:20:29.465Z,8.10
2022-12-07T04:22:56.445Z,7.03
2022-12-07T04:25:23.281Z,7.73
2022-12-07T04:27:50.186Z,7.73
2022-12-07T04:30:17.395Z,7.10
2022-12-07T04:32:44.171Z,7.87
2022-12-07T04:35:12.397Z,7.33
2022-12-07T04:37:40.600Z,7.40
2022-12-07T04:40:09.077Z,8.10
2022-12-07T04:42:36.010Z,8.13
2022-12-07T04:45:02.882Z,8.03
2022-12-07T04:47:30.054Z,8.13
2022-12-07T04:49:56.918Z,7.37
2022-12-07T04:52:25.142Z,7.43
2022-12-07T04:54:51.942Z,7.73
2022-12-07T04:57:18.693Z,8.50
2022-12-07T04:59:46.186Z,8.20
2022-12-07T05:02:13.529Z,7.70
2022-12-07T05:04:40.343Z,8.07
2022-12-07T05:07:07.244Z,7.40
2022-12-07T05:09:35.616Z,8.00
2022-12-07T05:12:02.569Z,7.77
2022-12-07T05:14:29.369Z,8.03
2022-12-07T05:16:56.218Z,8.30
2022-12-07T05:19:23.187Z,7.40
2022-12-07T05:21:50.238Z,7.63
2022-12-07T05:24:18.076Z,7.33
2022-12-07T05:26:46.894Z,8.57
2022-12-07T05:29:16.177Z,8.03
2022-12-07T05:31:43.783Z,7.90
2022-12-07T05:34:11.115Z,6.67
2022-12-07T05:36:37.929Z,7.70
2022-12-07T05:39:04.987Z,8.70
2022-12-07T05:41:54.902Z,8.93
2022-12-07T05:44:23.115Z,8.40
2022-12-07T05:46:49.952Z,7.97
2022-12-07T05:49:16.899Z,8.37
2022-12-07T05:51:43.760Z,7.70
2022-12-07T05:54:10.685Z,9.80
2022-12-07T05:56:37.553Z,7.83
2022-12-07T05:59:23.459Z,7.83
2022-12-07T06:01:52.398Z,7.70
2022-12-07T06:04:20.344Z,8.13
2022-12-07T06:06:47.495Z,8.53
2022-12-07T06:09:14.726Z,10.23
2022-12-07T06:12:00.791Z,7.83
2022-12-07T06:14:27.646Z,8.30
2022-12-07T06:16:56.131Z,8.13
2022-12-07T06:19:23.161Z,7.20
2022-12-07T06:21:50.059Z,7.93
2022-12-07T06:24:18.028Z,8.27
2022-12-07T06:26:45.431Z,8.10
2022-12-07T06:29:12.858Z,8.13
2022-12-07T06:31:40.012Z,8.13
2022-12-07T06:34:11.465Z,8.80
2022-12-07T06:36:38.995Z,7.70
2022-12-07T06:39:06.314Z,9.00
2022-12-07T06:41:33.255Z,8.20
2022-12-07T06:44:00.118Z,8.33
2022-12-07T06:46:27.019Z,8.80
2022-12-07T06:48:53.916Z,8.23
2022-12-07T06:51:22.175Z,8.43
2022-12-07T06:53:49.070Z,9.30
2022-12-07T06:56:16.679Z,7.97
2022-12-07T06:58:43.536Z,8.23
2022-12-07T07:01:11.476Z,8.33
2022-12-07T07:03:38.543Z,8.47
2022-12-07T07:06:06.206Z,8.53
2022-12-07T07:08:34.548Z,8.17
2022-12-07T07:11:01.481Z,9.07
2022-12-07T07:13:28.621Z,8.93
2022-12-07T07:15:55.986Z,9.03
2022-12-07T07:18:22.884Z,8.90
2022-12-07T07:20:50.983Z,8.10
2022-12-07T07:23:18.007Z,9.20
2022-12-07T07:25:47.003Z,8.43
2022-12-07T07:28:14.129Z,9.17
2022-12-07T07:30:41.437Z,8.83
2022-12-07T07:33:08.504Z,8.57
2022-12-07T07:35:36.097Z,8.97
2022-12-07T07:38:03.565Z,9.40
2022-12-07T07:40:30.926Z,9.07
2022-12-07T07:42:59.605Z,8.83
2022-12-07T07:45:27.730Z,9.20
2022-12-07T07:47:55.006Z,8.33
2022-12-07T07:50:22.411Z,8.37
2022-12-07T07:52:49.319Z,8.00
2022-12-07T07:55:17.263Z,7.50
2022-12-07T07:57:46.225Z,7.67
2022-12-07T08:00:17.918Z,7.27
2022-12-07T08:02:45.093Z,8.40
2022-12-07T08:05:13.216Z,8.63
2022-12-07T08:07:40.472Z,8.87
2022-12-07T08:10:10.496Z,8.00
2022-12-07T08:12:38.526Z,7.67
2022-12-07T08:15:06.404Z,6.80
2022-12-07T08:17:34.705Z,6.67
2022-12-07T08:20:01.777Z,7.23
2022-12-07T08:22:29.063Z,7.57
2022-12-07T08:24:56.104Z,7.20
2022-12-07T08:27:27.896Z,7.80
2022-12-07T08:29:54.855Z,7.57
2022-12-07T08:32:21.775Z,7.27
2022-12-07T08:34:51.048Z,7.47
2022-12-07T08:37:18.003Z,7.43
2022-12-07T08:39:44.942Z,6.87
2022-12-07T08:42:11.960Z,6.80
2022-12-07T08:44:38.904Z,7.67
2022-12-07T08:47:08.055Z,7.40
2022-12-07T08:49:39.302Z,6.83
2022-12-07T08:52:07.838Z,6.67
2022-12-07T08:54:37.577Z,6.47
2022-12-07T08:57:05.465Z,6.33
2022-12-07T08:59:33.627Z,6.70
2022-12-07T09:02:00.617Z,6.40
2022-12-07T09:04:27.526Z,6.13
2022-12-07T09:06:55.515Z,6.67
2022-12-07T09:09:23.853Z,5.73
2022-12-07T09:11:50.749Z,6.00
2022-12-07T09:14:18.195Z,5.13
2022-12-07T09:16:45.172Z,5.23
2022-12-07T09:19:12.279Z,6.23
2022-12-07T09:21:39.368Z,5.57
2022-12-07T09:24:07.010Z,5.67
2022-12-07T09:26:36.743Z,5.37
2022-12-07T09:29:04.252Z,5.37
2022-12-07T09:31:31.332Z,5.20
2022-12-07T09:33:59.851Z,6.07
2022-12-07T09:36:28.010Z,5.53
2022-12-07T09:38:55.038Z,5.60
2022-12-07T09:41:23.037Z,5.23
2022-12-07T09:43:51.503Z,4.43
2022-12-07T09:46:21.497Z,4.23
2022-12-07T09:48:51.056Z,3.10
2022-12-07T09:51:23.733Z,3.57
2022-12-07T09:53:52.371Z,2.30
2022-12-07T09:56:20.730Z,2.70
2022-12-07T09:58:48.319Z,2.97
2022-12-07T10:01:19.543Z,2.33
2022-12-07T10:03:52.090Z,2.60
2022-12-07T10:06:20.009Z,2.27
2022-12-07T10:08:47.049Z,2.00
2022-12-07T10:11:15.806Z,2.10
2022-12-07T10:13:46.356Z,2.10
2022-12-07T10:16:36.084Z,2.10
2022-12-07T10:19:21.457Z,2.50
2022-12-07T10:22:13.594Z,2.60
2022-12-07T10:24:43.878Z,1.90
2022-12-07T10:27:21.550Z,1.97
2022-12-07T10:29:51.180Z,2.20
2022-12-07T10:32:35.246Z,2.07
2022-12-07T10:35:25.002Z,2.13
2022-12-07T10:37:53.476Z,2.33
2022-12-07T10:40:34.148Z,1.90
2022-12-07T10:43:19.415Z,1.60
2022-12-07T10:46:24.332Z,1.97
2022-12-07T10:49:00.203Z,1.90
2022-12-07T10:51:39.390Z,1.50
2022-12-07T10:54:15.924Z,1.50
2022-12-07T10:56:55.074Z,1.97
2022-12-07T10:59:42.408Z,1.73
2022-12-07T11:02:22.786Z,1.77
2022-12-07T11:05:03.183Z,2.10
2022-12-07T11:07:40.887Z,1.70
2022-12-07T11:10:15.698Z,1.90
2022-12-07T11:13:17.084Z,1.70
2022-12-07T11:15:58.286Z,1.80
2022-12-07T11:18:30.509Z,2.17
2022-12-07T11:21:08.659Z,2.47
2022-12-07T11:23:47.261Z,1.93
2022-12-07T11:26:22.294Z,2.00
2022-12-07T11:29:12.519Z,2.10
2022-12-07T11:31:54.968Z,1.93
2022-12-07T11:34:30.561Z,1.63
2022-12-07T11:36:58.910Z,2.20
2022-12-07T11:39:29.741Z,1.90
2022-12-07T11:42:02.640Z,2.30
2022-12-07T11:44:37.381Z,1.47
2022-12-07T11:47:10.860Z,1.60
2022-12-07T11:49:44.270Z,2.03
2022-12-07T11:52:19.910Z,1.57
2022-12-07T11:54:49.363Z,1.80
2022-12-07T11:57:21.655Z,1.60
2022-12-07T11:59:53.585Z,2.10
2022-12-07T12:02:25.261Z,2.23
2022-12-07T12:04:56.767Z,1.90
2022-12-07T12:10:21.756Z,1.50
2022-12-07T12:16:15.176Z,1.47
2022-12-07T12:18:58.141Z,1.67
2022-12-07T12:21:29.430Z,1.70
2022-12-07T12:24:02.021Z,1.53
2022-12-07T12:26:33.111Z,2.43
2022-12-07T12:29:02.609Z,1.90
2022-12-07T12:31:37.414Z,1.20
2022-12-07T12:34:26.070Z,1.10
2022-12-07T12:36:54.445Z,1.20
2022-12-07T12:39:24.124Z,1.17
2022-12-07T12:42:01.355Z,1.30
2022-12-07T12:45:15.947Z,0.93
2022-12-07T12:47:54.996Z,1.10
2022-12-07T12:50:25.428Z,1.27
2022-12-07T12:53:20.302Z,1.20
2022-12-07T12:56:26.294Z,1.10
2022-12-07T12:59:23.919Z,1.03
2022-12-07T13:01:51.983Z,1.50
2022-12-07T13:04:49.308Z,0.93
2022-12-07T13:07:54.204Z,1.53
2022-12-07T13:10:37.873Z,1.07
2022-12-07T13:13:26.349Z,1.30
2022-12-07T13:15:55.725Z,1.00
2022-12-07T13:18:36.573Z,1.10
2022-12-07T13:21:26.605Z,1.30
2022-12-07T13:23:56.650Z,0.97
2022-12-07T13:26:36.302Z,0.93
2022-12-07T13:29:11.431Z,1.00
2022-12-07T13:31:40.642Z,1.03
2022-12-07T13:34:32.383Z,0.90
2022-12-07T13:37:00.769Z,1.00
2022-12-07T13:39:28.918Z,1.00
2022-12-07T13:41:59.163Z,1.20
2022-12-07T13:44:28.057Z,1.20
2022-12-07T13:47:02.319Z,1.00
2022-12-07T13:49:30.968Z,1.67
2022-12-07T13:52:15.959Z,1.07
2022-12-07T13:54:46.464Z,1.10
2022-12-07T13:57:14.792Z,1.27
2022-12-07T13:59:41.660Z,1.20
2022-12-07T14:02:21.580Z,1.10
2022-12-07T14:04:51.768Z,1.30
2022-12-07T14:07:25.533Z,1.30
2022-12-07T14:09:57.829Z,1.30
2022-12-07T14:12:27.734Z,1.30
2022-12-07T14:14:55.935Z,1.23
2022-12-07T14:17:24.293Z,1.73
2022-12-07T14:19:53.763Z,1.20
2022-12-07T14:22:27.577Z,1.40
2022-12-07T14:25:23.142Z,1.40
2022-12-07T14:27:56.644Z,1.13
2022-12-07T14:30:25.582Z,0.77
2022-12-07T14:32:55.726Z,1.03
2022-12-07T14:35:23.183Z,0.73
2022-12-07T14:37:50.891Z,1.07
2022-12-07T14:40:20.245Z,1.40
2022-12-07T14:42:50.275Z,1.63
2022-12-07T14:45:20.767Z,1.10
2022-12-07T14:50:38.572Z,1.30
2022-12-07T14:53:27.684Z,1.57
2022-12-07T14:55:54.525Z,1.70
2022-12-07T14:58:21.662Z,1.33
2022-12-07T15:00:49.776Z,1.10
2022-12-07T15:03:16.746Z,1.27
2022-12-07T15:05:43.749Z,1.20
2022-12-07T15:08:12.693Z,1.77
2022-12-07T15:10:41.037Z,1.30
2022-12-07T15:13:27.070Z,1.03
2022-12-07T15:15:56.324Z,1.10
2022-12-07T15:18:24.740Z,1.40
2022-12-07T15:20:52.487Z,1.30
2022-12-07T15:23:19.394Z,1.20
2022-12-07T15:25:48.629Z,1.70
2022-12-07T15:28:16.229Z,1.87
2022-12-07T15:30:44.397Z,1.97
2022-12-07T15:33:13.852Z,1.57
2022-12-07T15:35:40.983Z,1.70
2022-12-07T15:38:07.879Z,2.20
2022-12-07T15:40:35.052Z,1.70
2022-12-07T15:43:02.065Z,1.63
2022-12-07T15:45:28.887Z,2.00
2022-12-07T15:48:26.894Z,2.00
2022-12-07T15:50:44.543Z,1.50
2022-12-07T15:53:11.482Z,1.70
2022-12-07T15:55:40.092Z,1.80
2022-12-07T15:58:07.154Z,1.93
2022-12-07T16:00:34.390Z,2.10
2022-12-07T16:03:01.408Z,1.87
2022-12-07T16:05:28.421Z,1.40
2022-12-07T16:07:56.782Z,1.90
2022-12-07T16:10:23.812Z,1.70
2022-12-07T16:12:50.810Z,2.07
2022-12-07T16:15:22.826Z,1.47
2022-12-07T16:17:52.272Z,1.40
2022-12-07T16:20:19.322Z,1.60
2022-12-07T16:22:46.219Z,1.60
2022-12-07T16:25:14.521Z,1.70
2022-12-07T16:27:41.432Z,1.70
2022-12-07T16:30:09.792Z,1.80
2022-12-07T16:32:36.667Z,1.60
2022-12-07T16:35:04.229Z,1.20
2022-12-07T16:37:31.352Z,1.60
2022-12-07T16:39:58.207Z,1.60
2022-12-07T16:42:27.349Z,1.70
2022-12-07T16:44:54.151Z,1.70
2022-12-07T16:47:21.011Z,2.07
2022-12-07T16:49:48.720Z,1.87
2022-12-07T16:52:20.329Z,1.73
2022-12-07T16:54:47.830Z,2.37
2022-12-07T16:57:21.535Z,1.43
2022-12-07T16:59:51.420Z,1.60
2022-12-07T17:02:18.825Z,1.30
2022-12-07T17:04:45.923Z,1.20
2022-12-07T17:07:13.274Z,2.03
2022-12-07T17:09:40.114Z,1.70
2022-12-07T17:12:07.784Z,1.60
2022-12-07T17:14:53.102Z,1.10
2022-12-07T17:17:21.346Z,1.20
2022-12-07T17:19:48.267Z,1.30
2022-12-07T17:22:15.132Z,1.50
2022-12-07T17:24:42.005Z,1.40
2022-12-07T17:27:09.525Z,1.63
2022-12-07T17:29:36.469Z,1.60
2022-12-07T17:32:03.478Z,1.50
2022-12-07T17:34:31.783Z,1.50
2022-12-07T17:36:58.687Z,1.40
2022-12-07T17:39:25.655Z,1.87
2022-12-07T17:42:10.944Z,1.50
2022-12-07T17:44:38.057Z,2.20
2022-12-07T17:47:06.199Z,3.07
2022-12-07T17:49:34.630Z,4.37
2022-12-07T17:52:19.849Z,2.60
2022-12-07T17:54:46.903Z,2.00
2022-12-07T17:57:13.963Z,1.93
2022-12-07T17:59:40.998Z,2.00
2022-12-07T18:02:09.646Z,2.07
2022-12-07T18:04:38.164Z,2.20
2022-12-07T18:07:06.761Z,2.50
2022-12-07T18:09:34.426Z,1.70
2022-12-07T18:12:01.467Z,1.93
2022-12-07T18:14:29.252Z,1.90
2022-12-07T18:16:56.253Z,2.37
2022-12-07T18:19:23.261Z,2.53
2022-12-07T18:21:51.579Z,2.20
2022-12-07T18:24:18.782Z,2.80
2022-12-07T18:26:48.053Z,2.03
2022-12-07T18:29:16.686Z,1.90
2022-12-07T18:31:44.215Z,2.27
2022-12-07T18:34:13.671Z,2.20
2022-12-07T18:36:45.932Z,1.90
2022-12-07T18:39:14.919Z,2.30
2022-12-07T18:41:42.770Z,2.20
2022-12-07T18:44:10.083Z,2.10
2022-12-07T18:46:38.063Z,2.50
2022-12-07T18:49:04.958Z,3.80
2022-12-07T18:51:32.835Z,4.10
2022-12-07T18:54:01.455Z,3.90
2022-12-07T18:56:31.324Z,4.03
2022-12-07T18:59:18.454Z,4.03
2022-12-07T19:01:48.510Z,5.17
2022-12-07T19:04:16.174Z,3.53
2022-12-07T19:06:43.840Z,2.97
2022-12-07T19:09:11.684Z,3.17
2022-12-07T19:11:49.895Z,3.40
2022-12-07T19:14:22.185Z,2.27
2022-12-07T19:16:50.690Z,2.30
2022-12-07T19:19:18.969Z,2.60
2022-12-07T19:21:45.915Z,2.40
2022-12-07T19:24:15.982Z,2.03
2022-12-07T19:26:46.575Z,2.40
2022-12-07T19:29:13.422Z,2.50
2022-12-07T19:31:40.451Z,2.53
2022-12-07T19:34:11.054Z,2.47
2022-12-07T19:36:38.436Z,3.00
2022-12-07T19:39:09.809Z,3.17
2022-12-07T19:41:40.061Z,3.20
2022-12-07T19:44:12.422Z,3.37
2022-12-07T19:46:39.933Z,3.53
2022-12-07T19:49:06.852Z,3.40
2022-12-07T19:51:33.792Z,2.90
2022-12-07T19:54:02.085Z,2.73
2022-12-07T19:56:30.657Z,3.07
2022-12-07T19:59:00.729Z,3.00
2022-12-07T20:01:29.757Z,3.53
2022-12-07T20:03:57.380Z,3.90
2022-12-07T20:06:24.523Z,4.40
2022-12-07T20:08:51.449Z,4.63
2022-12-07T20:11:38.419Z,4.40
2022-12-07T20:14:06.792Z,3.87
2022-12-07T20:16:35.233Z,4.37
2022-12-07T20:19:02.374Z,4.63
2022-12-07T20:21:29.405Z,3.90
2022-12-07T20:23:56.187Z,4.00
2022-12-07T20:26:23.022Z,4.37
2022-12-07T20:28:49.808Z,4.47
2022-12-07T20:31:17.400Z,5.70
2022-12-07T20:33:46.526Z,4.87
2022-12-07T20:36:15.740Z,4.47
2022-12-07T20:38:43.767Z,4.30
2022-12-07T20:41:32.707Z,4.17
2022-12-07T20:43:59.975Z,4.33
2022-12-07T20:46:27.443Z,4.20
2022-12-07T20:48:58.358Z,4.10
2022-12-07T20:51:25.323Z,3.77
2022-12-07T20:53:52.197Z,3.90
2022-12-07T20:56:20.183Z,4.20
2022-12-07T20:58:47.397Z,4.60
2022-12-07T21:01:15.281Z,4.40
2022-12-07T21:03:43.489Z,4.47
2022-12-07T21:06:14.020Z,5.43
2022-12-07T21:08:46.217Z,4.30
2022-12-07T21:11:13.446Z,5.30
2022-12-07T21:13:40.588Z,5.33
2022-12-07T21:16:09.637Z,5.03
2022-12-07T21:18:38.225Z,5.77
2022-12-07T21:21:05.756Z,6.03
2022-12-07T21:23:34.015Z,5.30
2022-12-07T21:26:01.216Z,4.60
2022-12-07T21:28:28.020Z,5.47
2022-12-07T21:31:14.374Z,5.83
2022-12-07T21:33:44.452Z,5.63
2022-12-07T21:36:13.417Z,5.40
2022-12-07T21:38:41.737Z,5.77
2022-12-07T21:41:13.500Z,6.20
2022-12-07T21:43:40.461Z,5.80
2022-12-07T21:46:07.702Z,5.50
2022-12-07T21:48:34.782Z,6.17
2022-12-07T21:51:06.972Z,5.57
2022-12-07T21:53:34.240Z,5.43
2022-12-07T21:56:03.151Z,5.60
2022-12-07T21:58:30.261Z,5.93
2022-12-07T22:00:57.845Z,6.10
2022-12-07T22:03:24.679Z,5.47
2022-12-07T22:05:51.927Z,5.50
2022-12-07T22:08:19.227Z,5.70
2022-12-07T22:10:46.162Z,6.30
2022-12-07T22:13:14.393Z,6.27
2022-12-07T22:15:41.561Z,5.67
2022-12-07T22:18:08.647Z,5.27
2022-12-07T22:20:35.782Z,5.67
2022-12-07T22:23:02.894Z,5.53
2022-12-07T22:25:29.939Z,5.77
2022-12-07T22:27:56.930Z,4.90
2022-12-07T22:30:25.090Z,5.70
2022-12-07T22:32:52.352Z,5.13
2022-12-07T22:35:19.363Z,6.30
2022-12-07T22:37:46.223Z,5.97
2022-12-07T22:40:14.218Z,5.97
2022-12-07T22:42:41.433Z,5.27
2022-12-07T22:45:09.352Z,6.23
2022-12-07T22:47:39.021Z,5.83
2022-12-07T22:50:07.249Z,6.70
2022-12-07T22:52:34.231Z,6.00
2022-12-07T22:55:01.426Z,6.10
2022-12-07T22:57:29.924Z,6.13
2022-12-07T22:59:56.863Z,5.73
2022-12-07T23:02:23.805Z,5.27
2022-12-07T23:04:52.103Z,5.90
2022-12-07T23:07:18.977Z,5.77
2022-12-07T23:09:45.962Z,5.47
2022-12-07T23:12:31.328Z,6.37
2022-12-07T23:14:58.140Z,5.73
2022-12-07T23:17:25.134Z,5.67
2022-12-07T23:19:56.003Z,6.50
2022-12-07T23:22:23.675Z,5.73
2022-12-07T23:24:50.618Z,6.37
2022-12-07T23:27:17.483Z,6.00
2022-12-07T23:29:44.344Z,6.27
2022-12-07T23:32:11.226Z,6.97
2022-12-07T23:34:38.274Z,6.47
2022-12-07T23:37:06.830Z,6.37
2022-12-07T23:39:33.825Z,7.30
2022-12-07T23:42:00.604Z,7.80
2022-12-07T23:44:27.624Z,7.63
2022-12-07T23:46:54.496Z,7.10
2022-12-07T23:49:21.380Z,8.23
2022-12-07T23:51:48.267Z,6.77
2022-12-07T23:54:16.519Z,7.83
2022-12-07T23:56:44.013Z,7.50
2022-12-07T23:59:12.961Z,7.17
